SCEL/SCL METAR and TAF weather

Enter ICAO airport designator
Station Type Date Time Source
SCEL METAR 2021/09/23 18:00 UTC NOAA

SCEL 231800Z 17008KT 130V220 CAVOK 25/03 Q1015 NOSIG


Station Type Date Time Source
SCEL Decoded METAR 2021/09/23 18:00 UTC NOAA

Pudahuel, Chile (SCEL) 33-23S 070-47W 476M
Sep 23, 2021 - 02:00 PM EDT / 2021.09.23 1800 UTC
Wind: from the S (170 degrees) at 9 MPH (8 KT) (direction variable):0
Visibility: greater than 7 mile(s):0
Temperature: 77 F (25 C)
Dew Point: 37 F (3 C)
Relative Humidity: 23%
Pressure (altimeter): 29.97 in. Hg (1015 hPa)
ob: SCEL 231800Z 17008KT 130V220 CAVOK 25/03 Q1015 NOSIG
cycle: 18

Station Type Date Time Source
SCEL TAF 2021/09/23 18:25 UTC NOAA

TAF SCEL 231604Z 2318/2418 19010KT CAVOK TX27/2318Z TN07/2410Z
BECMG 2401/2403 14004KT
BECMG 2408/2410 VRB02KT 7000 NSC
BECMG 2413/2415 CAVOK
BECMG 2416/2418 19010KT

Example: see airport list